Time;durP1;ratioP1;P1;durP2;ratioP2;P2;SDS_P1;SDS_P2;PMS_P1;PMS_P2;Temp;Humidity;BMP_temperature;BMP_pressure;BME280_temperature;BME280_humidity;BME280_pressure;Samples;Min_cycle;Max_cycle;Signal;HPM_P1;HPM_P2
2022/03/13 00:00:19;;;;;;;2.03;0.93;;;;;;;11.03;60.09;101479.69;5098102;27;97798;-36
2022/03/13 00:02:45;;;;;;;2.05;1.17;;;;;;;10.98;59.37;101474.53;5079717;27;96671;-36
2022/03/13 00:05:13;;;;;;;1.08;0.73;;;;;;;11.00;59.37;101479.88;5097538;27;96752;-36
2022/03/13 00:07:39;;;;;;;2.90;1.20;;;;;;;11.00;59.27;101480.75;5062440;27;100893;-36
2022/03/13 00:10:05;;;;;;;2.00;1.30;;;;;;;10.99;59.27;101470.88;5097895;27;97604;-36
2022/03/13 00:12:31;;;;;;;1.10;0.80;;;;;;;10.96;59.43;101473.72;5079631;27;96627;-37
2022/03/13 00:14:59;;;;;;;1.75;0.82;;;;;;;10.92;59.74;101469.44;5098702;27;96661;-36
2022/03/13 00:17:29;;;;;;;2.78;1.38;;;;;;;10.90;59.14;101465.94;5079076;27;100084;-37
2022/03/13 00:19:58;;;;;;;1.20;0.90;;;;;;;10.93;59.31;101464.91;5079363;27;100905;-37
2022/03/13 00:22:24;;;;;;;5.32;1.45;;;;;;;10.96;59.41;101468.31;5097642;27;96522;-36
2022/03/13 00:24:49;;;;;;;2.10;1.02;;;;;;;10.95;59.30;101460.28;5098282;27;96739;-36
2022/03/13 00:27:14;;;;;;;1.80;0.95;;;;;;;10.93;59.94;101465.75;5097747;27;97887;-36
2022/03/13 00:29:41;;;;;;;1.60;0.93;;;;;;;10.95;59.31;101473.81;5097145;27;110016;-36
2022/03/13 00:32:07;;;;;;;1.48;1.00;;;;;;;10.91;59.57;101462.25;5097302;27;96482;-36
2022/03/13 00:34:32;;;;;;;1.65;0.95;;;;;;;10.88;59.89;101461.56;5098097;27;96836;-37
2022/03/13 00:36:59;;;;;;;3.25;1.17;;;;;;;10.89;59.62;101458.75;5097606;27;97911;-37
2022/03/13 00:39:24;;;;;;;1.40;0.98;;;;;;;10.92;59.39;101466.75;5079217;27;100342;-37
2022/03/13 00:41:49;;;;;;;1.27;0.90;;;;;;;10.83;59.40;101453.66;5096927;27;116982;-36
2022/03/13 00:44:15;;;;;;;1.75;1.15;;;;;;;10.91;59.36;101464.97;5097712;27;97732;-36
2022/03/13 00:46:40;;;;;;;1.80;0.98;;;;;;;10.92;59.16;101465.88;5097042;27;97919;-36
2022/03/13 00:49:06;;;;;;;1.80;1.17;;;;;;;10.86;59.41;101448.06;5097305;27;99636;-36
2022/03/13 00:51:33;;;;;;;1.58;0.77;;;;;;;10.79;59.47;101438.53;5078885;27;96578;-37
2022/03/13 00:53:58;;;;;;;2.63;1.20;;;;;;;10.82;59.18;101446.47;5079004;27;96873;-36
2022/03/13 00:56:23;;;;;;;1.73;0.98;;;;;;;10.83;59.40;101448.25;5097348;27;98005;-36
2022/03/13 00:58:49;;;;;;;3.72;1.10;;;;;;;10.82;59.36;101446.47;5097009;27;107983;-36
2022/03/13 01:01:16;;;;;;;1.95;1.02;;;;;;;10.79;59.31;101439.38;5097525;27;96684;-36
2022/03/13 01:03:41;;;;;;;1.83;1.02;;;;;;;10.89;59.30;101456.03;5078690;27;97025;-35
2022/03/13 01:06:08;;;;;;;2.07;1.30;;;;;;;10.90;59.23;101446.09;5096636;27;111502;-36
2022/03/13 01:08:35;;;;;;;2.17;1.25;;;;;;;10.89;59.22;101449.75;5078344;27;101213;-36
2022/03/13 01:11:02;;;;;;;1.85;0.93;;;;;;;10.81;59.06;101437.47;5096804;27;96580;-36
2022/03/13 01:13:28;;;;;;;1.98;1.15;;;;;;;10.87;59.13;101438.09;5078801;27;96892;-36
2022/03/13 01:15:59;;;;;;;2.50;1.38;;;;;;;10.87;59.15;101438.09;5096879;27;99560;-36
2022/03/13 01:18:24;;;;;;;2.67;1.20;;;;;;;10.82;59.07;101428.41;5097066;27;97826;-36
2022/03/13 01:20:49;;;;;;;1.10;0.63;;;;;;;10.81;59.12;101423.06;5097179;27;96572;-37
2022/03/13 01:23:15;;;;;;;1.42;0.77;;;;;;;10.80;59.25;101433.03;5097106;27;97036;-36
2022/03/13 01:25:41;;;;;;;2.33;0.98;;;;;;;10.82;59.31;101439.25;5096827;27;97898;-37
2022/03/13 01:28:06;;;;;;;1.60;1.17;;;;;;;10.75;59.13;101421.56;5097279;27;98098;-36
2022/03/13 01:30:31;;;;;;;1.63;1.00;;;;;;;10.73;59.15;101415.34;5097042;27;96421;-36
2022/03/13 01:32:57;;;;;;;2.20;1.30;;;;;;;10.75;59.45;101416.16;5097078;27;96767;-36
2022/03/13 01:35:24;;;;;;;3.38;1.42;;;;;;;10.76;59.14;101419.72;5096198;27;97970;-36
2022/03/13 01:37:51;;;;;;;4.45;1.30;;;;;;;10.78;59.25;101415.97;5077797;27;100870;-36
2022/03/13 01:40:23;;;;;;;1.65;0.90;;;;;;;10.74;59.50;101411.66;5077910;27;96634;-37
2022/03/13 01:42:49;;;;;;;2.10;0.95;;;;;;;10.74;59.07;101413.50;5077526;27;96880;-36
2022/03/13 01:45:17;;;;;;;1.23;0.80;;;;;;;10.72;59.25;101405.44;5060766;27;100782;-36
2022/03/13 01:47:43;;;;;;;1.58;0.77;;;;;;;10.70;59.41;101406.50;5077913;27;101104;-36
2022/03/13 01:50:09;;;;;;;0.75;0.52;;;;;;;10.72;59.33;101405.44;5078138;27;96576;-36
2022/03/13 01:52:37;;;;;;;1.00;0.77;;;;;;;10.71;59.39;101398.28;5078420;27;96832;-36
2022/03/13 01:55:03;;;;;;;1.05;0.68;;;;;;;10.70;59.36;101393.84;5096217;27;98915;-37
2022/03/13 01:57:29;;;;;;;0.85;0.75;;;;;;;10.66;59.28;101385.97;5077753;27;102164;-37
2022/03/13 01:59:57;;;;;;;1.13;0.88;;;;;;;10.72;59.41;101391.91;5077374;27;96570;-36
2022/03/13 02:02:25;;;;;;;1.23;0.77;;;;;;;10.66;59.37;101391.38;5078049;27;96905;-36
2022/03/13 02:04:53;;;;;;;2.13;0.88;;;;;;;10.58;58.99;101376.41;5076770;27;100920;-36
2022/03/13 02:07:20;;;;;;;1.98;0.95;;;;;;;10.68;59.47;101393.03;5077240;27;101014;-36
2022/03/13 02:09:46;;;;;;;1.30;0.75;;;;;;;10.66;59.46;101392.25;5077685;27;96566;-37
2022/03/13 02:12:13;;;;;;;1.92;0.80;;;;;;;10.68;59.10;101392.13;5077766;27;96911;-36
2022/03/13 02:14:38;;;;;;;1.00;0.60;;;;;;;10.60;59.43;101377.16;5077449;27;101481;-36
2022/03/13 02:17:04;;;;;;;2.63;1.08;;;;;;;10.65;59.46;101386.91;5096456;27;97813;-36
2022/03/13 02:19:30;;;;;;;0.22;0.22;;;;;;;10.59;59.77;101379.97;5096253;27;96624;-37
2022/03/13 02:21:56;;;;;;;0.68;0.55;;;;;;;10.65;59.42;101392.31;5096402;27;96852;-36
2022/03/13 02:24:24;;;;;;;1.33;0.63;;;;;;;10.65;59.59;101386.91;5076786;27;101074;-36
2022/03/13 02:27:00;;;;;;;1.77;1.20;;;;;;;10.57;59.81;101371.94;5077308;27;101190;-37
2022/03/13 02:29:27;;;;;;;2.65;1.00;;;;;;;10.56;59.61;101370.19;5077431;27;96586;-37
2022/03/13 02:31:53;;;;;;;1.90;1.10;;;;;;;10.61;59.85;101373.53;5077653;27;96865;-37
2022/03/13 02:34:20;;;;;;;1.25;0.88;;;;;;;10.56;59.95;101364.78;5095553;27;99552;-37
2022/03/13 02:36:55;;;;;;;1.45;0.93;;;;;;;10.59;59.76;101364.59;5077073;27;100725;-37
2022/03/13 02:39:21;;;;;;;1.67;0.85;;;;;;;10.54;59.96;101360.41;5077470;27;96587;-37
2022/03/13 02:41:47;;;;;;;2.20;0.90;;;;;;;10.53;59.65;101359.50;5077791;27;96851;-37
2022/03/13 02:44:14;;;;;;;1.92;1.08;;;;;;;10.53;59.76;101356.78;5095801;27;97864;-36
2022/03/13 02:46:45;;;;;;;1.95;0.88;;;;;;;10.57;59.76;101363.78;5095369;27;99389;-37
2022/03/13 02:49:11;;;;;;;1.15;0.80;;;;;;;10.57;59.68;101357.50;5095163;27;96592;-36
2022/03/13 02:51:37;;;;;;;2.15;0.90;;;;;;;10.54;59.86;101361.25;5096254;27;96788;-36
2022/03/13 02:54:02;;;;;;;1.38;0.77;;;;;;;10.54;60.16;101354.97;5095697;27;97970;-37
2022/03/13 02:56:27;;;;;;;1.45;0.80;;;;;;;10.45;59.87;101339.22;5099343;27;97268;-37
2022/03/13 02:58:53;;;;;;;1.02;0.82;;;;;;;10.45;60.29;101342.78;5099700;27;96592;-36
2022/03/13 03:01:19;;;;;;;2.47;1.17;;;;;;;10.45;60.45;101344.63;5099374;27;96816;-37
2022/03/13 03:03:44;;;;;;;2.70;1.10;;;;;;;10.55;60.08;101360.28;5079378;27;100987;-35
2022/03/13 03:06:12;;;;;;;1.75;0.73;;;;;;;10.53;60.51;101358.63;5099271;27;99257;-36
2022/03/13 03:08:38;;;;;;;1.63;1.10;;;;;;;10.46;60.59;101340.94;5099095;27;96606;-36
2022/03/13 03:11:03;;;;;;;1.42;1.00;;;;;;;10.45;60.53;101350.03;5099435;27;96859;-36
2022/03/13 03:13:28;;;;;;;1.45;1.02;;;;;;;10.42;60.58;101345.66;5098352;27;98936;-37
2022/03/13 03:15:54;;;;;;;1.35;0.90;;;;;;;10.48;60.50;101366.13;5098038;27;126498;-36
2022/03/13 03:18:20;;;;;;;1.60;1.25;;;;;;;10.40;60.87;101355.69;5099097;27;96762;-36
2022/03/13 03:20:45;;;;;;;1.55;1.00;;;;;;;10.43;60.92;101358.25;5099039;27;96555;-37
2022/03/13 03:23:10;;;;;;;1.10;0.63;;;;;;;10.40;60.84;101356.56;5098782;27;98130;-36
2022/03/13 03:25:36;;;;;;;1.48;0.95;;;;;;;10.47;60.95;101361.69;5098460;27;99142;-36
2022/03/13 03:28:01;;;;;;;1.48;1.10;;;;;;;10.39;61.19;101348.50;5099227;27;96755;-37
2022/03/13 03:30:28;;;;;;;2.38;1.02;;;;;;;10.38;61.12;101344.06;5099521;27;96809;-36
2022/03/13 03:32:54;;;;;;;1.25;0.75;;;;;;;10.37;61.27;101351.31;5079797;27;100796;-36
2022/03/13 03:35:22;;;;;;;1.65;0.82;;;;;;;10.33;61.13;101340.72;5079813;27;100440;-36
2022/03/13 03:37:49;;;;;;;2.55;0.70;;;;;;;10.37;61.39;101361.28;5079658;27;96692;-36
2022/03/13 03:40:14;;;;;;;0.55;0.47;;;;;;;10.33;61.78;101351.56;5080204;27;96696;-36
2022/03/13 03:42:40;;;;;;;1.95;0.95;;;;;;;10.34;61.31;101359.59;5098250;27;104966;-36
2022/03/13 03:45:06;;;;;;;1.83;0.60;;;;;;;10.35;61.19;101360.50;5098431;27;97818;-37
2022/03/13 03:47:31;;;;;;;1.65;0.93;;;;;;;10.29;61.55;101363.50;5079602;27;96651;-37
2022/03/13 03:49:57;;;;;;;0.88;0.63;;;;;;;10.20;62.26;101349.47;5098738;27;96804;-36
2022/03/13 03:52:22;;;;;;;0.50;0.50;;;;;;;10.27;62.18;101365.38;5098266;27;97962;-36
2022/03/13 03:54:47;;;;;;;1.67;1.02;;;;;;;10.27;62.41;101362.66;5098720;27;97864;-36
2022/03/13 03:57:13;;;;;;;2.13;1.00;;;;;;;10.21;62.40;101347.63;5097735;27;113475;-36
2022/03/13 03:59:38;;;;;;;1.50;0.93;;;;;;;10.25;61.72;101353.75;5098079;27;108123;-36
2022/03/13 04:02:03;;;;;;;1.27;0.77;;;;;;;10.20;62.41;101357.59;5096831;27;127331;-37
2022/03/13 04:04:29;;;;;;;1.45;0.88;;;;;;;10.18;62.76;101358.63;5097547;27;97334;-37
2022/03/13 04:06:54;;;;;;;1.80;1.30;;;;;;;10.19;62.70;101361.22;5096648;27;112315;-36
2022/03/13 04:09:20;;;;;;;1.10;0.68;;;;;;;10.13;63.72;101352.56;5097734;27;100528;-36
2022/03/13 04:11:47;;;;;;;1.02;0.60;;;;;;;10.12;64.11;101350.81;5097762;27;98316;-36
2022/03/13 04:14:14;;;;;;;1.63;1.17;;;;;;;10.13;63.27;101349.84;5097695;27;99223;-37
2022/03/13 04:16:39;;;;;;;1.17;1.08;;;;;;;10.15;63.34;101347.94;5098038;27;96717;-36
2022/03/13 04:19:05;;;;;;;2.33;1.13;;;;;;;10.08;63.05;101347.41;5080016;27;96650;-37
2022/03/13 04:21:30;;;;;;;2.20;1.30;;;;;;;10.08;63.16;101350.09;5096911;27;126109;-37
2022/03/13 04:23:55;;;;;;;1.15;0.55;;;;;;;10.05;63.32;101344.81;5097927;27;97846;-36
2022/03/13 04:26:25;;;;;;;1.48;1.20;;;;;;;10.03;63.49;101337.75;5096723;27;109767;-36
2022/03/13 04:28:50;;;;;;;1.60;0.85;;;;;;;10.02;64.15;101342.28;5079516;27;96810;-37
2022/03/13 04:31:17;;;;;;;2.78;1.38;;;;;;;9.92;64.87;101324.78;5097630;27;97955;-36
2022/03/13 04:33:42;;;;;;;0.70;0.45;;;;;;;9.96;65.15;101334.47;5078901;27;100888;-37
2022/03/13 04:36:14;;;;;;;0.93;0.70;;;;;;;9.93;64.83;101337.34;5097441;27;96679;-36
2022/03/13 04:38:41;;;;;;;2.35;1.33;;;;;;;9.91;64.51;101334.72;5098174;27;96599;-36
2022/03/13 04:41:06;;;;;;;2.50;1.27;;;;;;;9.93;65.13;101349.03;5078871;27;100849;-36
2022/03/13 04:43:31;;;;;;;1.45;0.93;;;;;;;9.92;65.29;101341.88;5098032;27;97846;-36
2022/03/13 04:45:57;;;;;;;3.53;1.40;;;;;;;9.90;66.27;101348.34;5098162;27;96448;-36
2022/03/13 04:48:23;;;;;;;3.10;1.30;;;;;;;9.82;66.50;101345.13;5079155;27;96589;-36
2022/03/13 04:50:48;;;;;;;2.58;1.17;;;;;;;9.82;66.70;101343.31;5096721;27;99357;-36
2022/03/13 04:53:14;;;;;;;1.33;0.80;;;;;;;9.90;65.09;101353.75;5097397;27;97685;-36
2022/03/13 04:55:41;;;;;;;2.33;1.40;;;;;;;9.87;65.86;101348.50;5078928;27;96524;-37
2022/03/13 04:58:08;;;;;;;2.42;1.20;;;;;;;9.79;65.92;101341.63;5078936;27;96828;-36
2022/03/13 05:00:37;;;;;;;4.38;1.08;;;;;;;9.85;66.09;101350.41;5078551;27;99458;-37
2022/03/13 05:03:02;;;;;;;2.25;1.38;;;;;;;9.82;67.04;101350.53;5096838;27;99326;-37
2022/03/13 05:05:28;;;;;;;1.88;1.13;;;;;;;9.83;66.03;101344.19;5097116;27;96448;-36
2022/03/13 05:07:54;;;;;;;2.15;1.15;;;;;;;9.84;66.01;101345.94;5097091;27;110841;-36
2022/03/13 05:10:20;;;;;;;2.10;1.10;;;;;;;9.78;65.79;101330.88;5096863;27;99432;-36
2022/03/13 05:12:46;;;;;;;2.00;1.25;;;;;;;9.78;65.64;101341.72;5078228;27;100618;-37
2022/03/13 05:15:12;;;;;;;2.38;1.63;;;;;;;9.79;65.82;101338.91;5078062;27;96549;-37
2022/03/13 05:17:37;;;;;;;1.40;1.00;;;;;;;9.77;66.15;101346.25;5097215;27;96812;-36
2022/03/13 05:20:04;;;;;;;4.55;1.27;;;;;;;9.71;66.10;101332.16;5096010;27;126245;-36
2022/03/13 05:22:29;;;;;;;1.23;0.90;;;;;;;9.72;66.41;101350.13;5096834;27;100058;-36
2022/03/13 05:24:54;;;;;;;4.82;1.08;;;;;;;9.69;66.39;101340.34;5097417;27;96705;-37
2022/03/13 05:27:20;;;;;;;1.48;1.15;;;;;;;9.64;67.52;101350.50;5096892;27;96742;-36
2022/03/13 05:29:45;;;;;;;1.58;0.98;;;;;;;9.67;67.48;101344.94;5096599;27;99226;-37
2022/03/13 05:32:11;;;;;;;1.20;0.95;;;;;;;9.65;67.34;101338.72;5097022;27;98894;-36
2022/03/13 05:34:36;;;;;;;1.58;0.88;;;;;;;9.67;66.49;101344.94;5096875;27;96444;-36
2022/03/13 05:37:02;;;;;;;1.60;0.98;;;;;;;9.66;66.12;101335.09;5096600;27;96811;-36
2022/03/13 05:39:27;;;;;;;2.53;1.20;;;;;;;9.65;67.05;101338.72;5095819;27;99266;-36
2022/03/13 05:41:53;;;;;;;2.17;1.35;;;;;;;9.65;67.71;101341.44;5096278;27;97425;-36
2022/03/13 05:44:19;;;;;;;1.23;0.85;;;;;;;9.65;66.93;101337.84;5078253;27;96578;-36
2022/03/13 05:46:44;;;;;;;2.67;0.82;;;;;;;9.67;66.71;101338.66;5096599;27;96842;-37
2022/03/13 05:49:09;;;;;;;1.60;1.00;;;;;;;9.56;67.35;101321.16;5095428;27;126166;-36
2022/03/13 05:51:37;;;;;;;2.10;1.13;;;;;;;9.69;66.43;101336.75;5095487;27;126362;-36
2022/03/13 05:54:06;;;;;;;2.92;1.27;;;;;;;9.66;67.33;101334.22;5078210;27;96658;-36
2022/03/13 05:56:32;;;;;;;1.65;1.00;;;;;;;9.63;67.16;101329.84;5078304;27;96883;-37
2022/03/13 05:58:57;;;;;;;3.35;1.48;;;;;;;9.59;66.50;101314.72;5095982;27;99338;-36
2022/03/13 06:01:23;;;;;;;5.43;1.95;;;;;;;9.65;68.25;101332.44;5096595;27;97147;-36
2022/03/13 06:03:48;;;;;;;1.08;0.95;;;;;;;9.62;67.41;101316.38;5095256;27;100059;-36
2022/03/13 06:06:14;;;;;;;1.90;1.08;;;;;;;9.64;67.46;101331.56;5077846;27;96789;-36
2022/03/13 06:08:40;;;;;;;1.77;1.00;;;;;;;9.67;67.03;101326.00;5095961;27;99444;-36
2022/03/13 06:11:05;;;;;;;2.40;1.23;;;;;;;9.68;67.27;101321.50;5095944;27;98302;-36
2022/03/13 06:13:31;;;;;;;1.45;1.10;;;;;;;9.65;67.09;101322.50;5096614;27;96577;-36
2022/03/13 06:15:59;;;;;;;1.92;1.10;;;;;;;9.61;67.79;101320.91;5096481;27;96732;-36
2022/03/13 06:18:27;;;;;;;3.05;1.20;;;;;;;9.66;67.32;101337.78;5077364;27;100758;-37
2022/03/13 06:20:53;;;;;;;2.00;1.35;;;;;;;9.64;67.12;101328.88;5096261;27;97820;-36
2022/03/13 06:23:18;;;;;;;2.75;1.48;;;;;;;9.63;67.63;101323.53;5077693;27;96705;-36
2022/03/13 06:25:43;;;;;;;2.47;1.52;;;;;;;9.62;68.50;101329.91;5095735;27;96717;-36
2022/03/13 06:28:10;;;;;;;2.70;1.73;;;;;;;9.59;67.23;101332.78;5095228;27;99155;-36
2022/03/13 06:30:36;;;;;;;2.95;1.27;;;;;;;9.54;67.72;101330.28;5076464;27;100846;-37
2022/03/13 06:33:02;;;;;;;4.30;2.35;;;;;;;9.51;67.72;101339.44;5095933;27;96611;-37
2022/03/13 06:35:28;;;;;;;2.75;1.55;;;;;;;9.51;68.06;101346.66;5096284;27;96800;-37
2022/03/13 06:37:55;;;;;;;4.72;2.15;;;;;;;9.48;67.75;101339.56;5077024;27;100696;-36
2022/03/13 06:40:23;;;;;;;2.65;1.83;;;;;;;9.43;68.00;101341.63;5076865;27;100839;-37
2022/03/13 06:42:51;;;;;;;4.60;2.30;;;;;;;9.46;69.05;101351.41;5077371;27;96670;-37
2022/03/13 06:45:16;;;;;;;3.83;2.58;;;;;;;9.45;69.59;101352.38;5078006;27;96746;-36
2022/03/13 06:47:44;;;;;;;3.65;2.30;;;;;;;9.38;68.79;101332.88;5095411;27;99154;-36
2022/03/13 06:50:10;;;;;;;4.95;2.38;;;;;;;9.40;68.81;101336.38;5076799;27;100953;-36
2022/03/13 06:52:36;;;;;;;3.75;2.30;;;;;;;9.45;69.68;101344.25;5076679;27;96567;-36
2022/03/13 06:55:04;;;;;;;4.30;2.50;;;;;;;9.40;70.49;101339.06;5095026;27;111331;-36
2022/03/13 06:57:29;;;;;;;5.72;2.40;;;;;;;9.26;69.62;101323.53;5076731;27;101291;-37
2022/03/13 06:59:57;;;;;;;6.63;2.80;;;;;;;9.31;70.22;101344.94;5095456;27;97991;-36
2022/03/13 07:02:23;;;;;;;5.15;2.85;;;;;;;9.22;69.33;101335.41;5095671;27;96641;-36
2022/03/13 07:04:48;;;;;;;4.07;2.10;;;;;;;9.23;71.29;101342.59;5076766;27;96951;-36
2022/03/13 07:07:14;;;;;;;7.50;2.78;;;;;;;9.25;69.90;101342.53;5095298;27;99313;-37
2022/03/13 07:09:39;;;;;;;6.43;3.00;;;;;;;9.25;70.04;101345.25;5094323;27;128299;-36
2022/03/13 07:12:10;;;;;;;4.50;2.03;;;;;;;9.28;69.74;101345.94;5094793;27;117153;-36
2022/03/13 07:14:35;;;;;;;6.35;2.90;;;;;;;9.32;69.39;101352.97;5077096;27;96732;-37
2022/03/13 07:17:00;;;;;;;5.88;2.33;;;;;;;9.29;69.24;101349.53;5094954;27;97965;-36
2022/03/13 07:19:25;;;;;;;4.45;2.42;;;;;;;9.36;70.16;101353.69;5094395;27;127255;-37
2022/03/13 07:21:51;;;;;;;6.28;3.25;;;;;;;9.30;70.32;101344.06;5094608;27;116824;-36
2022/03/13 07:24:17;;;;;;;6.75;3.40;;;;;;;9.39;69.25;101352.66;5095409;27;96739;-36
2022/03/13 07:26:42;;;;;;;4.47;3.05;;;;;;;9.33;69.86;101351.13;5095139;27;98147;-37
2022/03/13 07:29:08;;;;;;;6.28;2.53;;;;;;;9.36;70.25;101354.56;5094916;27;99153;-37
2022/03/13 07:31:33;;;;;;;6.38;3.45;;;;;;;9.38;69.09;101353.63;5094364;27;116318;-36
2022/03/13 07:33:58;;;;;;;7.00;3.63;;;;;;;9.44;68.64;101354.22;5095857;27;96811;-36
2022/03/13 07:36:24;;;;;;;5.95;2.92;;;;;;;9.53;68.61;101352.84;5094854;27;97859;-36
2022/03/13 07:38:50;;;;;;;4.80;2.65;;;;;;;9.48;68.77;101349.50;5094920;27;97514;-36
2022/03/13 07:41:15;;;;;;;5.97;3.63;;;;;;;9.56;68.69;101350.03;5095309;27;96586;-36
2022/03/13 07:43:40;;;;;;;14.52;3.15;;;;;;;9.61;68.63;101337.16;5098677;27;96693;-36
2022/03/13 07:46:05;;;;;;;4.97;2.78;;;;;;;9.74;68.11;101354.50;5098352;27;99964;-36
2022/03/13 07:48:34;;;;;;;6.70;3.45;;;;;;;9.76;68.12;101351.72;5097913;27;114253;-36
2022/03/13 07:51:00;;;;;;;8.77;3.63;;;;;;;9.85;68.59;101331.47;5079777;27;96596;-36
2022/03/13 07:53:27;;;;;;;6.28;2.78;;;;;;;10.21;67.85;101347.63;5080074;27;97038;-37
2022/03/13 07:55:54;;;;;;;11.13;4.40;;;;;;;10.37;67.48;101345.03;5098072;27;99859;-36
2022/03/13 07:58:19;;;;;;;8.18;4.05;;;;;;;10.39;67.27;101337.69;5079812;27;100626;-36
2022/03/13 08:00:45;;;;;;;4.03;2.22;;;;;;;10.52;66.62;101337.94;5097579;27;113277;-36
2022/03/13 08:03:12;;;;;;;6.28;3.72;;;;;;;10.49;65.88;101325.44;5098212;27;96800;-36
2022/03/13 08:05:38;;;;;;;6.00;3.22;;;;;;;10.50;66.26;101327.16;5078471;27;100975;-37
2022/03/13 08:08:04;;;;;;;4.47;2.65;;;;;;;10.56;66.29;101337.69;5098014;27;97789;-36
2022/03/13 08:10:30;;;;;;;9.02;4.35;;;;;;;10.51;65.77;101328.94;5079769;27;96574;-36
2022/03/13 08:12:55;;;;;;;7.70;3.55;;;;;;;10.46;65.84;101322.00;5098119;27;96868;-36
2022/03/13 08:15:21;;;;;;;7.05;3.58;;;;;;;10.60;66.11;101331.13;5097411;27;115063;-37
2022/03/13 08:17:46;;;;;;;8.45;3.70;;;;;;;10.73;65.40;101330.47;5079291;27;99922;-37
2022/03/13 08:20:12;;;;;;;6.80;3.78;;;;;;;10.85;65.37;101335.22;5097569;27;108887;-36
2022/03/13 08:22:38;;;;;;;6.40;3.55;;;;;;;10.96;64.95;101338.19;5063431;27;96781;-36
2022/03/13 08:25:05;;;;;;;7.88;2.92;;;;;;;11.06;64.86;101335.88;5097830;27;97412;-36
2022/03/13 08:27:31;;;;;;;8.02;3.97;;;;;;;11.09;64.74;101335.69;5079051;27;99791;-36
2022/03/13 08:29:57;;;;;;;6.35;3.45;;;;;;;11.19;64.32;101347.75;5096836;27;111113;-36
2022/03/13 08:32:22;;;;;;;6.78;4.30;;;;;;;11.15;64.04;101326.31;5097860;27;96820;-37
2022/03/13 08:34:50;;;;;;;6.30;3.20;;;;;;;11.27;64.10;101341.91;5097383;27;99269;-36
2022/03/13 08:37:15;;;;;;;8.82;4.32;;;;;;;11.28;63.67;101335.53;5097347;27;97797;-36
2022/03/13 08:39:41;;;;;;;6.47;3.85;;;;;;;11.25;63.78;101312.19;5097667;27;96683;-36
2022/03/13 08:42:06;;;;;;;8.93;3.95;;;;;;;11.40;63.28;101323.13;5097958;27;96735;-37
2022/03/13 08:44:32;;;;;;;9.70;4.40;;;;;;;11.40;63.28;101312.25;5097631;27;97836;-36
2022/03/13 08:46:58;;;;;;;7.43;3.63;;;;;;;11.38;63.03;101314.19;5097904;27;97747;-36
2022/03/13 08:49:23;;;;;;;4.57;2.83;;;;;;;11.38;63.03;101308.75;5079140;27;96629;-36
2022/03/13 08:51:49;;;;;;;8.88;5.03;;;;;;;11.46;62.96;101333.59;5097559;27;96731;-36
2022/03/13 08:54:16;;;;;;;6.68;3.92;;;;;;;11.50;62.87;101312.59;5096456;27;98751;-36
2022/03/13 08:56:42;;;;;;;6.00;3.67;;;;;;;11.45;62.56;101305.59;5097116;27;99288;-37
2022/03/13 08:59:07;;;;;;;4.60;2.30;;;;;;;11.56;62.60;101307.69;5079044;27;96512;-37
2022/03/13 09:01:32;;;;;;;5.78;3.72;;;;;;;11.61;62.32;101310.16;5096760;27;103429;-37
2022/03/13 09:03:58;;;;;;;10.00;3.40;;;;;;;11.74;62.43;101329.28;5096087;27;99539;-36
2022/03/13 09:06:23;;;;;;;3.97;2.42;;;;;;;11.72;61.85;101317.63;5096840;27;109948;-36
2022/03/13 09:08:48;;;;;;;6.88;3.50;;;;;;;11.71;61.37;101321.34;5097077;27;102580;-37
2022/03/13 09:11:14;;;;;;;5.82;3.45;;;;;;;11.77;60.96;101321.81;5097673;27;96802;-36
2022/03/13 09:13:39;;;;;;;6.93;3.75;;;;;;;11.82;61.09;101313.41;5096789;27;108460;-36
2022/03/13 09:16:11;;;;;;;7.30;4.20;;;;;;;11.85;60.70;101319.53;5097070;27;97897;-36
2022/03/13 09:18:36;;;;;;;7.35;3.75;;;;;;;11.86;61.13;101307.72;5096820;27;96742;-36
2022/03/13 09:21:02;;;;;;;6.72;4.18;;;;;;;12.02;60.67;101313.13;5097100;27;96823;-37
2022/03/13 09:23:27;;;;;;;7.28;3.70;;;;;;;12.03;60.49;101311.28;5096700;27;99456;-37
2022/03/13 09:25:53;;;;;;;8.35;3.72;;;;;;;12.16;60.74;101317.75;5096874;27;97910;-36
2022/03/13 09:28:20;;;;;;;6.22;3.67;;;;;;;12.25;59.52;101324.44;5078358;27;96584;-37
2022/03/13 09:30:45;;;;;;;9.75;4.38;;;;;;;12.29;60.24;101316.00;5078271;27;96838;-36
2022/03/13 09:33:12;;;;;;;7.82;3.78;;;;;;;12.35;59.41;101316.59;5096578;27;97691;-36
2022/03/13 09:35:37;;;;;;;5.78;3.17;;;;;;;12.37;58.51;101315.56;5096926;27;98675;-37
2022/03/13 09:38:03;;;;;;;6.00;3.45;;;;;;;12.45;59.35;101307.78;5096720;27;96786;-36
2022/03/13 09:40:28;;;;;;;8.38;3.95;;;;;;;12.62;58.96;101317.59;5097183;27;96823;-36
2022/03/13 09:42:54;;;;;;;6.57;3.70;;;;;;;12.78;57.96;101324.81;5095850;27;99370;-36
2022/03/13 09:45:20;;;;;;;3.72;2.33;;;;;;;12.84;57.67;101314.41;5096541;27;97773;-36
2022/03/13 09:47:46;;;;;;;6.65;3.28;;;;;;;13.07;57.76;101310.22;5078078;27;96665;-36
2022/03/13 09:50:13;;;;;;;5.93;3.03;;;;;;;13.12;56.72;101308.06;5096569;27;96887;-37
2022/03/13 09:52:40;;;;;;;6.40;2.88;;;;;;;13.29;55.90;101314.28;5096173;27;99232;-36
2022/03/13 09:55:08;;;;;;;8.73;4.28;;;;;;;13.48;55.70;101311.22;5077695;27;101061;-37
2022/03/13 09:57:35;;;;;;;5.60;2.88;;;;;;;13.74;56.22;101314.94;5096552;27;96615;-36
2022/03/13 10:00:01;;;;;;;7.95;3.80;;;;;;;14.01;55.60;101304.91;5097115;27;96825;-36
2022/03/13 10:02:34;;;;;;;6.22;2.67;;;;;;;14.18;53.90;101300.09;5095159;27;127136;-36
2022/03/13 10:05:10;;;;;;;5.75;3.50;;;;;;;14.24;54.69;101307.88;5076064;27;100663;-36
2022/03/13 10:07:54;;;;;;;8.35;4.07;;;;;;;14.22;53.88;101309.81;5096331;27;96642;-36
2022/03/13 10:10:21;;;;;;;6.10;3.58;;;;;;;14.28;53.83;101301.22;5096010;27;103305;-37
2022/03/13 10:12:47;;;;;;;4.65;2.38;;;;;;;14.33;52.66;101303.63;5060014;27;103227;-36
2022/03/13 10:15:13;;;;;;;4.63;2.72;;;;;;;14.32;52.84;101289.13;5096064;27;99103;-36
2022/03/13 10:17:40;;;;;;;5.50;3.10;;;;;;;14.53;52.41;101294.03;5077637;27;96621;-37
2022/03/13 10:20:25;;;;;;;8.30;3.60;;;;;;;14.68;52.32;101300.28;5096251;27;96872;-36
2022/03/13 10:23:05;;;;;;;9.40;3.88;;;;;;;14.92;52.17;101294.91;5060752;27;100841;-36
2022/03/13 10:25:32;;;;;;;4.57;3.10;;;;;;;14.96;52.63;101297.31;5077811;27;100728;-36
2022/03/13 10:28:16;;;;;;;5.68;3.00;;;;;;;15.20;51.29;101296.50;5077617;27;96563;-37
2022/03/13 10:30:43;;;;;;;8.40;4.45;;;;;;;15.16;51.95;101290.41;5096344;27;96862;-37
2022/03/13 10:33:09;;;;;;;8.10;3.55;;;;;;;15.17;51.48;101281.22;5095182;27;99062;-36
2022/03/13 10:35:36;;;;;;;5.75;2.88;;;;;;;15.40;51.60;101282.25;5077182;27;97789;-36
2022/03/13 10:38:13;;;;;;;7.40;3.35;;;;;;;15.53;50.42;101290.38;5095592;27;96514;-36
2022/03/13 10:40:38;;;;;;;6.15;3.47;;;;;;;15.65;49.99;101294.03;5077432;27;96590;-36
2022/03/13 10:43:09;;;;;;;7.90;3.42;;;;;;;15.75;49.99;101280.56;5095332;27;108868;-36
2022/03/13 10:45:51;;;;;;;5.20;2.65;;;;;;;15.99;49.61;101275.94;5076930;27;101228;-37
2022/03/13 10:48:29;;;;;;;4.68;2.15;;;;;;;16.25;48.38;101275.78;5077250;27;96784;-36
2022/03/13 10:51:14;;;;;;;5.10;2.22;;;;;;;16.25;48.43;101267.56;5077730;27;96862;-36
2022/03/13 10:53:39;;;;;;;4.22;2.75;;;;;;;16.05;46.92;101267.28;5095318;27;99441;-36
2022/03/13 10:56:09;;;;;;;4.97;2.92;;;;;;;16.01;47.78;101265.78;5095544;27;97785;-37
2022/03/13 10:58:45;;;;;;;5.22;3.40;;;;;;;16.07;48.51;101256.25;5076648;27;96805;-36
2022/03/13 11:01:13;;;;;;;5.00;2.65;;;;;;;16.10;48.56;101262.31;5077265;27;96789;-37
2022/03/13 11:03:54;;;;;;;5.45;3.15;;;;;;;16.28;47.11;101264.59;5076669;27;101001;-36
2022/03/13 11:06:22;;;;;;;6.60;3.28;;;;;;;16.08;48.03;101269.75;5095291;27;99156;-36
2022/03/13 11:08:51;;;;;;;5.28;2.63;;;;;;;16.14;48.04;101255.63;5077139;27;96573;-36
2022/03/13 11:11:18;;;;;;;5.45;2.50;;;;;;;16.39;48.05;101264.63;5076825;27;96914;-36
2022/03/13 11:13:49;;;;;;;5.43;1.77;;;;;;;16.50;47.41;101270.13;5076735;27;100888;-36
2022/03/13 11:16:21;;;;;;;4.93;2.33;;;;;;;16.56;46.35;101250.50;5079113;27;99293;-36
2022/03/13 11:18:48;;;;;;;3.88;1.95;;;;;;;16.75;47.10;101255.31;5080579;27;96697;-37
2022/03/13 11:21:13;;;;;;;4.65;2.60;;;;;;;17.10;46.17;101272.63;5099065;27;96745;-36